Terminal Aerodrome Forecast
Issued by NWS

Home | Current Version | Previous Version | Text Only | Print | Product List | Glossary On
Versions: 1 2 3 4 5 6 7 8 9 10 11 12 13 14 15 16
456
FTUS43 KMPX 091140
TAFRNH
TAF
KRNH 091140Z 0912/1012 30007KT P6SM -SN BKN020 OVC060
     FM091400 28006KT P6SM SCT025 OVC050
     FM100000 29004KT P6SM SCT035 BKN090=

USA.gov is the U.S. government's official web portal to all federal, state and local government web resources and services.